Time;durP1;ratioP1;P1;durP2;ratioP2;P2;SDS_P1;SDS_P2;PMS_P1;PMS_P2;Temp;Humidity;BMP_temperature;BMP_pressure;BME280_temperature;BME280_humidity;BME280_pressure;Samples;Min_cycle;Max_cycle;Signal;HPM_P1;HPM_P2
2023/07/07 00:01:22;;;;;;;5.60;3.20;;;;;;;27.37;50.09;100364.00;5094947;28;20399;-65
2023/07/07 00:03:50;;;;;;;5.47;2.63;;;;;;;27.36;49.73;100362.31;5112486;28;20051;-66
2023/07/07 00:06:21;;;;;;;4.60;3.03;;;;;;;27.34;50.09;100358.94;5112905;28;20051;-66
2023/07/07 00:08:49;;;;;;;5.07;2.83;;;;;;;27.35;49.84;100366.09;5112516;28;20051;-65
2023/07/07 00:11:18;;;;;;;4.80;2.97;;;;;;;27.32;50.01;100358.28;5112759;28;20051;-65
2023/07/07 00:13:46;;;;;;;4.50;3.00;;;;;;;27.32;50.16;100361.03;5112553;28;20077;-65
2023/07/07 00:16:15;;;;;;;6.68;3.40;;;;;;;27.31;50.08;100367.56;5112528;28;20055;-65
2023/07/07 00:18:44;;;;;;;5.57;3.38;;;;;;;27.30;49.96;100362.25;5112382;28;20058;-64
2023/07/07 00:21:12;;;;;;;4.97;2.80;;;;;;;27.28;50.09;100370.66;5112449;28;20510;-65
2023/07/07 00:23:40;;;;;;;3.65;2.40;;;;;;;27.28;50.40;100370.66;5112219;28;20496;-65
2023/07/07 00:26:10;;;;;;;4.90;3.10;;;;;;;27.27;50.03;100362.66;5112465;28;20470;-65
2023/07/07 00:28:38;;;;;;;4.75;2.83;;;;;;;27.26;50.30;100370.03;5112380;28;20389;-64
2023/07/07 00:31:06;;;;;;;5.13;3.00;;;;;;;27.25;50.22;100371.06;5112231;28;20043;-63
2023/07/07 00:33:36;;;;;;;5.43;2.75;;;;;;;27.23;50.51;100367.69;5112150;28;20097;-64
2023/07/07 00:36:05;;;;;;;5.07;2.78;;;;;;;27.22;50.37;100366.00;5112362;28;20047;-65
2023/07/07 00:38:33;;;;;;;5.07;2.80;;;;;;;27.23;49.95;100366.84;5112269;28;20389;-65
2023/07/07 00:41:03;;;;;;;4.50;2.90;;;;;;;27.22;49.86;100363.25;5112353;28;20071;-65
2023/07/07 00:43:31;;;;;;;4.60;2.80;;;;;;;27.21;50.43;100368.91;5111957;28;20484;-66
2023/07/07 00:46:00;;;;;;;4.22;2.65;;;;;;;27.21;50.39;100364.28;5111983;28;20048;-65
2023/07/07 00:48:33;;;;;;;4.57;3.00;;;;;;;27.19;50.37;100374.59;5112147;28;20059;-63
2023/07/07 00:51:08;;;;;;;4.35;3.00;;;;;;;27.18;50.26;100367.41;5112129;28;20498;-63
2023/07/07 00:53:37;;;;;;;4.68;2.85;;;;;;;27.17;50.00;100364.88;5111961;28;20426;-64
2023/07/07 00:56:10;;;;;;;5.38;2.88;;;;;;;27.16;50.44;100376.88;5111891;28;20047;-64
2023/07/07 00:58:42;;;;;;;4.78;2.80;;;;;;;27.16;49.89;100375.00;5112037;28;20043;-65
2023/07/07 01:01:14;;;;;;;3.90;2.60;;;;;;;27.15;50.36;100369.72;5112095;28;20058;-65
2023/07/07 01:03:46;;;;;;;4.60;2.90;;;;;;;27.12;49.96;100378.31;5111880;28;20097;-65
2023/07/07 01:06:23;;;;;;;5.68;2.97;;;;;;;27.12;49.97;100386.50;5111868;28;20385;-63
2023/07/07 01:08:58;;;;;;;4.10;2.70;;;;;;;27.11;50.39;100380.19;5111276;28;20772;-65
2023/07/07 01:11:27;;;;;;;4.80;2.80;;;;;;;27.08;50.49;100383.34;5111950;28;20047;-65
2023/07/07 01:13:56;;;;;;;4.43;2.83;;;;;;;27.10;50.45;100386.72;5111724;28;20050;-65
2023/07/07 01:16:34;;;;;;;4.30;2.72;;;;;;;27.09;50.42;100387.75;5111789;28;20044;-65
2023/07/07 01:19:16;;;;;;;4.60;2.67;;;;;;;27.04;50.01;100377.41;5111644;28;20093;-65
2023/07/07 01:22:02;;;;;;;5.43;3.20;;;;;;;27.06;50.09;100383.53;5111545;28;20044;-66
2023/07/07 01:24:52;;;;;;;5.45;3.25;;;;;;;27.05;50.46;100391.94;5111476;28;20547;-65
2023/07/07 01:27:42;;;;;;;4.03;2.72;;;;;;;27.05;50.49;100389.22;5111483;28;20465;-65
2023/07/07 01:30:43;;;;;;;5.40;2.60;;;;;;;27.03;50.17;100383.94;5111519;28;20051;-65
2023/07/07 01:33:14;;;;;;;4.93;2.95;;;;;;;27.01;50.31;100391.44;5111661;28;20055;-65
2023/07/07 01:35:43;;;;;;;4.20;2.83;;;;;;;27.01;50.12;100385.97;5111521;28;20039;-66
2023/07/07 01:38:30;;;;;;;5.47;2.65;;;;;;;27.00;50.05;100394.38;5111546;28;20484;-65
2023/07/07 01:41:08;;;;;;;5.28;2.88;;;;;;;26.98;50.00;100385.53;5111546;28;20089;-65
2023/07/07 01:43:42;;;;;;;5.30;3.00;;;;;;;26.99;50.41;100395.44;5111431;28;20044;-65
2023/07/07 01:46:20;;;;;;;4.40;2.70;;;;;;;26.97;50.31;100383.84;5111558;28;20119;-65
2023/07/07 01:48:53;;;;;;;5.85;3.00;;;;;;;26.95;49.87;100388.66;5111597;28;20048;-65
2023/07/07 01:51:23;;;;;;;;;;;;;;;26.94;50.01;100392.44;5111988;28;20043;-65
2023/07/07 01:53:52;;;;;;;5.25;3.08;;;;;;;26.94;50.30;100389.69;5111524;28;19919;-65
2023/07/07 01:56:23;;;;;;;4.82;2.90;;;;;;;26.93;50.29;100393.50;5111294;28;20067;-65
2023/07/07 01:58:52;;;;;;;5.80;3.10;;;;;;;26.91;50.24;100390.06;5111256;28;20050;-65
2023/07/07 02:01:24;;;;;;;4.35;2.80;;;;;;;26.91;50.04;100390.06;5111289;28;20458;-65
2023/07/07 02:03:52;;;;;;;6.68;3.10;;;;;;;26.90;50.37;100382.91;5111341;28;20428;-65
2023/07/07 02:06:21;;;;;;;4.30;2.88;;;;;;;26.89;50.46;100386.69;5111315;28;20087;-65
2023/07/07 02:08:49;;;;;;;4.78;2.80;;;;;;;26.90;50.16;100381.00;5110994;28;20466;-65
2023/07/07 02:11:17;;;;;;;4.35;2.70;;;;;;;26.88;49.98;100385.00;5111176;28;20040;-66
2023/07/07 02:13:45;;;;;;;4.78;2.90;;;;;;;26.86;50.25;100381.63;5111177;28;20053;-65
2023/07/07 02:16:13;;;;;;;4.47;3.00;;;;;;;26.86;49.96;100387.09;5110994;28;20044;-65
2023/07/07 02:18:48;;;;;;;4.65;2.90;;;;;;;26.85;50.02;100382.66;5111006;28;20126;-63
2023/07/07 02:21:17;;;;;;;4.05;2.78;;;;;;;26.84;50.00;100378.22;5112019;28;20051;-66
2023/07/07 02:23:45;;;;;;;5.15;3.20;;;;;;;26.82;50.24;100384.72;5114497;28;20047;-65
2023/07/07 02:26:17;;;;;;;4.75;3.08;;;;;;;26.82;50.01;100386.63;5114404;28;20051;-66
2023/07/07 02:28:46;;;;;;;4.95;2.65;;;;;;;26.80;50.05;100384.06;5114723;28;20060;-64
2023/07/07 02:31:15;;;;;;;5.80;3.00;;;;;;;26.80;49.72;100389.53;5114455;28;20483;-66
2023/07/07 02:33:45;;;;;;;4.80;3.00;;;;;;;26.79;49.79;100393.31;5114482;28;20488;-65
2023/07/07 02:36:13;;;;;;;5.57;2.90;;;;;;;26.78;50.34;100386.16;5114434;28;20126;-65
2023/07/07 02:38:41;;;;;;;5.53;2.80;;;;;;;26.76;50.24;100388.25;5114330;28;20048;-64
2023/07/07 02:41:09;;;;;;;5.30;2.92;;;;;;;26.75;49.95;100381.09;5114483;28;20400;-65
2023/07/07 02:43:38;;;;;;;5.68;2.78;;;;;;;26.74;50.26;100390.34;5114235;28;20505;-65
2023/07/07 02:46:06;;;;;;;5.13;2.83;;;;;;;26.74;50.06;100390.34;5114264;28;20062;-65
2023/07/07 02:48:34;;;;;;;5.28;2.78;;;;;;;26.74;50.13;100386.75;5114209;28;20411;-65
2023/07/07 02:51:07;;;;;;;4.75;3.00;;;;;;;26.72;50.31;100386.94;5113980;28;20039;-65
2023/07/07 02:53:36;;;;;;;4.53;2.92;;;;;;;26.72;49.97;100389.66;5114278;28;20147;-65
2023/07/07 02:56:06;;;;;;;4.88;2.90;;;;;;;26.69;50.05;100384.59;5114222;28;20059;-65
2023/07/07 02:58:34;;;;;;;4.70;2.90;;;;;;;26.71;50.25;100395.34;5113840;28;20520;-65
2023/07/07 03:01:09;;;;;;;5.88;2.65;;;;;;;26.69;50.47;100392.81;5114028;28;20046;-63
2023/07/07 03:03:39;;;;;;;5.00;3.13;;;;;;;26.70;50.16;100393.66;5113820;28;20065;-65
2023/07/07 03:06:11;;;;;;;5.07;2.75;;;;;;;26.68;50.50;100393.00;5113955;28;20048;-65
2023/07/07 03:08:40;;;;;;;4.43;2.90;;;;;;;26.68;50.10;100401.22;5114058;28;20043;-64
2023/07/07 03:11:11;;;;;;;4.00;2.70;;;;;;;26.67;50.42;100403.09;5113947;28;20047;-65
2023/07/07 03:13:40;;;;;;;4.63;2.80;;;;;;;26.66;50.60;100408.75;5113707;28;20051;-65
2023/07/07 03:16:09;;;;;;;4.97;2.80;;;;;;;26.65;50.55;100413.38;5113729;28;20047;-65
2023/07/07 03:18:37;;;;;;;4.32;2.85;;;;;;;26.63;50.77;100409.97;5113917;28;20124;-65
2023/07/07 03:21:09;;;;;;;4.40;2.95;;;;;;;26.64;50.85;100416.31;5113838;28;20043;-65
2023/07/07 03:23:38;;;;;;;4.30;2.58;;;;;;;26.62;50.51;100416.50;5113782;28;20051;-65
2023/07/07 03:26:07;;;;;;;4.00;2.67;;;;;;;26.60;50.65;100415.84;5113534;28;20152;-65
2023/07/07 03:28:36;;;;;;;5.47;2.67;;;;;;;26.62;50.42;100426.59;5113530;28;20047;-65
2023/07/07 03:31:12;;;;;;;5.32;3.10;;;;;;;26.59;50.63;100425.09;5113387;28;20048;-65
2023/07/07 03:33:42;;;;;;;4.80;3.10;;;;;;;26.59;50.65;100424.25;5113395;28;20044;-66
2023/07/07 03:36:14;;;;;;;4.93;3.13;;;;;;;26.58;50.33;100422.56;5113404;28;20062;-65
2023/07/07 03:38:43;;;;;;;4.75;2.70;;;;;;;26.57;50.47;100423.59;5113066;28;20496;-66
2023/07/07 03:41:14;;;;;;;4.70;2.90;;;;;;;26.57;50.79;100432.66;5113209;28;20484;-64
2023/07/07 03:43:45;;;;;;;4.97;2.90;;;;;;;26.56;50.41;100428.22;5113023;28;20488;-64
2023/07/07 03:46:14;;;;;;;5.35;3.35;;;;;;;26.55;50.35;100434.75;5113081;28;20058;-64
2023/07/07 03:48:42;;;;;;;5.80;3.08;;;;;;;26.53;50.70;100440.38;5113114;28;20039;-63
2023/07/07 03:51:13;;;;;;;4.88;2.78;;;;;;;26.53;50.84;100442.25;5112907;28;20075;-64
2023/07/07 03:53:43;;;;;;;5.07;2.90;;;;;;;26.51;50.88;100433.41;5112785;28;20062;-65
2023/07/07 03:56:12;;;;;;;5.75;3.08;;;;;;;26.52;50.53;100443.31;5113136;28;20047;-65
2023/07/07 03:58:41;;;;;;;4.95;3.30;;;;;;;26.51;50.40;100441.59;5112999;28;20051;-65
2023/07/07 04:01:13;;;;;;;4.90;3.00;;;;;;;26.50;50.51;100446.22;5112978;28;20130;-65
2023/07/07 04:03:42;;;;;;;4.75;3.00;;;;;;;26.47;50.46;100445.78;5112769;28;20043;-64
2023/07/07 04:06:15;;;;;;;6.10;3.22;;;;;;;26.49;50.76;100446.44;5112623;28;20083;-64
2023/07/07 04:08:43;;;;;;;5.43;3.20;;;;;;;26.48;50.70;100447.47;5112490;28;20088;-64
2023/07/07 04:11:14;;;;;;;5.03;3.03;;;;;;;26.47;50.65;100443.03;5108738;28;20051;-65
2023/07/07 04:13:43;;;;;;;6.32;3.40;;;;;;;26.47;50.80;100453.97;5092200;28;20040;-65
2023/07/07 04:16:18;;;;;;;6.40;3.10;;;;;;;26.45;50.80;100453.34;5092226;28;20075;-65
2023/07/07 04:18:47;;;;;;;6.20;3.13;;;;;;;26.44;50.65;100459.81;5092043;28;20091;-65
2023/07/07 04:21:20;;;;;;;5.25;3.33;;;;;;;26.44;50.39;100459.81;5091916;28;20105;-65
2023/07/07 04:23:52;;;;;;;5.90;2.92;;;;;;;26.44;50.45;100459.81;5091985;28;20051;-65
2023/07/07 04:26:21;;;;;;;5.97;3.65;;;;;;;26.43;50.50;100474.53;5092219;28;20055;-65
2023/07/07 04:28:52;;;;;;;4.63;2.63;;;;;;;26.44;50.30;100473.50;5092073;28;20043;-65
2023/07/07 04:31:21;;;;;;;4.85;3.22;;;;;;;26.41;50.78;100469.25;5091908;28;20048;-65
2023/07/07 04:33:50;;;;;;;4.78;3.00;;;;;;;26.42;50.66;100475.56;5091778;28;20055;-65
2023/07/07 04:36:20;;;;;;;6.18;3.10;;;;;;;26.40;50.72;100475.75;5091981;28;20060;-65
2023/07/07 04:38:49;;;;;;;6.35;3.30;;;;;;;26.41;50.51;100474.72;5091982;28;20044;-65
2023/07/07 04:41:20;;;;;;;5.40;3.20;;;;;;;26.41;50.62;100476.63;5091642;28;20073;-65
2023/07/07 04:43:51;;;;;;;5.03;3.33;;;;;;;26.40;50.24;100477.66;5091110;28;20508;-64
2023/07/07 04:46:22;;;;;;;5.38;2.92;;;;;;;26.39;50.52;100481.44;5091572;28;20146;-65
2023/07/07 04:48:50;;;;;;;6.40;3.30;;;;;;;26.40;50.10;100483.13;5091933;28;20048;-64
2023/07/07 04:51:20;;;;;;;4.78;3.05;;;;;;;26.39;50.35;100487.75;5091756;28;20052;-64
2023/07/07 04:53:49;;;;;;;5.30;3.17;;;;;;;26.38;50.16;100494.25;5091497;28;20098;-64
2023/07/07 04:56:18;;;;;;;4.75;3.03;;;;;;;26.39;50.15;100486.91;5092040;28;20051;-65
2023/07/07 04:58:49;;;;;;;5.88;3.17;;;;;;;26.37;50.18;100489.81;5091372;28;20497;-64
2023/07/07 05:01:20;;;;;;;4.97;3.15;;;;;;;26.36;50.06;100485.38;5091609;28;20157;-64
2023/07/07 05:03:51;;;;;;;5.97;3.30;;;;;;;26.37;49.91;100497.16;5091455;28;20127;-64
2023/07/07 05:06:22;;;;;;;5.22;3.08;;;;;;;26.36;50.11;100493.56;5091397;28;20451;-64
2023/07/07 05:08:51;;;;;;;5.68;3.22;;;;;;;26.36;49.59;100495.47;5091266;28;20509;-63
2023/07/07 05:11:22;;;;;;;5.07;3.13;;;;;;;26.35;49.64;100496.50;5090964;28;20044;-64
2023/07/07 05:13:52;;;;;;;4.93;3.22;;;;;;;26.34;49.54;100497.50;5091404;28;20056;-65
2023/07/07 05:16:22;;;;;;;5.13;3.28;;;;;;;26.33;49.22;100502.13;5091343;28;20068;-66
2023/07/07 05:18:51;;;;;;;5.30;3.30;;;;;;;26.31;49.21;100497.91;5091193;28;20039;-65
2023/07/07 05:21:24;;;;;;;6.40;3.35;;;;;;;26.30;48.95;100507.97;5091174;28;20139;-63
2023/07/07 05:23:52;;;;;;;5.65;3.47;;;;;;;26.22;48.93;100500.72;5091192;28;20044;-64
2023/07/07 05:26:22;;;;;;;6.85;3.60;;;;;;;26.31;49.44;100508.84;5091168;28;20139;-63
2023/07/07 05:28:51;;;;;;;4.90;3.17;;;;;;;26.29;48.88;100508.19;5091163;28;20048;-68
2023/07/07 05:31:20;;;;;;;5.32;3.30;;;;;;;26.29;48.82;100517.22;5091144;28;20051;-64
2023/07/07 05:33:48;;;;;;;6.15;3.42;;;;;;;26.28;48.89;100506.47;5091143;28;20072;-65
2023/07/07 05:36:16;;;;;;;6.22;3.60;;;;;;;26.28;48.62;100518.25;5091148;28;20075;-65
2023/07/07 05:38:46;;;;;;;6.30;3.40;;;;;;;26.28;48.62;100514.69;5091248;28;20054;-67
2023/07/07 05:41:14;;;;;;;6.00;3.63;;;;;;;26.25;48.52;100511.28;5091227;28;20067;-65
2023/07/07 05:43:42;;;;;;;5.90;3.67;;;;;;;26.25;48.79;100511.28;5091209;28;20044;-65
2023/07/07 05:46:13;;;;;;;4.97;3.28;;;;;;;26.24;48.51;100515.03;5090972;28;20489;-65
2023/07/07 05:48:42;;;;;;;5.70;3.47;;;;;;;26.22;48.46;100517.13;5090926;28;20054;-65
2023/07/07 05:51:13;;;;;;;7.05;3.30;;;;;;;26.22;48.21;100517.13;5090922;28;20102;-65
2023/07/07 05:53:43;;;;;;;5.82;3.47;;;;;;;26.22;48.51;100522.59;5091106;28;20055;-65
2023/07/07 05:56:16;;;;;;;7.22;3.55;;;;;;;26.21;48.53;100520.88;5091736;28;20138;-65
2023/07/07 05:58:44;;;;;;;5.68;3.60;;;;;;;26.20;48.07;100521.94;5094849;28;20389;-66
2023/07/07 06:01:13;;;;;;;6.55;3.55;;;;;;;26.21;48.46;100520.88;5094798;28;20048;-65
2023/07/07 06:03:43;;;;;;;6.80;3.47;;;;;;;26.20;48.23;100535.59;5094457;28;20052;-65
2023/07/07 06:06:12;;;;;;;5.93;3.50;;;;;;;26.21;48.54;100531.81;5094498;28;20048;-64
2023/07/07 06:08:41;;;;;;;5.85;3.47;;;;;;;26.18;48.13;100537.69;5094549;28;20059;-66
2023/07/07 06:11:09;;;;;;;4.68;3.30;;;;;;;26.19;48.04;100533.91;5094689;28;20459;-65
2023/07/07 06:13:39;;;;;;;5.53;3.53;;;;;;;26.20;48.08;100540.22;5094400;28;20105;-64
2023/07/07 06:16:08;;;;;;;5.80;3.47;;;;;;;26.20;48.14;100538.34;5094095;28;20075;-64
2023/07/07 06:18:36;;;;;;;6.22;3.35;;;;;;;26.20;47.97;100541.06;5094638;28;20434;-65
2023/07/07 06:21:05;;;;;;;5.93;3.78;;;;;;;26.20;47.89;100549.28;5094538;28;20091;-65
2023/07/07 06:23:33;;;;;;;6.50;3.60;;;;;;;26.19;48.13;100555.78;5094352;28;20044;-65
2023/07/07 06:26:02;;;;;;;5.70;3.47;;;;;;;26.19;48.36;100549.47;5094288;28;20131;-64
2023/07/07 06:28:30;;;;;;;5.80;3.53;;;;;;;26.19;48.14;100561.25;5094013;28;20052;-64
2023/07/07 06:31:00;;;;;;;5.80;3.70;;;;;;;26.20;48.29;100543.81;5094520;28;20040;-64
2023/07/07 06:33:28;;;;;;;5.25;3.25;;;;;;;26.20;47.87;100562.94;5094467;28;20044;-64
2023/07/07 06:35:56;;;;;;;5.18;3.15;;;;;;;26.19;47.95;100558.50;5094432;28;20040;-64
2023/07/07 06:38:25;;;;;;;5.75;3.63;;;;;;;26.20;48.06;100562.09;5094247;28;20091;-64
2023/07/07 06:40:53;;;;;;;6.50;3.70;;;;;;;26.19;48.24;100558.50;5094486;28;20047;-64
2023/07/07 06:43:22;;;;;;;5.78;3.45;;;;;;;26.20;47.83;100562.09;5093628;28;20484;-66
2023/07/07 06:45:51;;;;;;;6.53;3.63;;;;;;;26.18;47.80;100565.03;5094012;28;20064;-64
2023/07/07 06:48:21;;;;;;;6.57;3.97;;;;;;;26.17;47.50;100568.78;5093569;28;20051;-65
2023/07/07 06:50:50;;;;;;;5.65;3.80;;;;;;;26.18;47.80;100567.75;5093767;28;20457;-64
2023/07/07 06:53:18;;;;;;;6.18;3.70;;;;;;;26.18;47.30;100567.75;5093649;28;20072;-63
2023/07/07 06:55:46;;;;;;;5.88;3.58;;;;;;;26.17;47.27;100568.78;5093512;28;20123;-64
2023/07/07 06:58:15;;;;;;;8.93;3.75;;;;;;;26.18;47.64;100575.94;5093761;28;20046;-65
2023/07/07 07:00:44;;;;;;;6.75;3.60;;;;;;;26.18;47.18;100569.63;5093707;28;20051;-64
2023/07/07 07:03:13;;;;;;;6.70;3.47;;;;;;;26.18;47.50;100573.22;5089204;28;20044;-67
2023/07/07 07:05:42;;;;;;;6.00;3.45;;;;;;;26.16;47.21;100574.44;5077419;28;20048;-68
2023/07/07 07:08:16;;;;;;;5.93;3.85;;;;;;;26.18;46.67;100581.41;5072168;28;20056;-64
2023/07/07 07:13:45;;;;;;;6.32;3.92;;;;;;;26.18;46.50;100580.56;5079668;28;20102;-65
2023/07/07 07:16:14;;;;;;;6.53;4.13;;;;;;;26.18;46.62;100586.88;5082505;28;20123;-67
2023/07/07 07:18:42;;;;;;;6.82;3.92;;;;;;;26.19;46.68;100582.28;5073051;28;20045;-66
2023/07/07 07:21:12;;;;;;;7.88;4.18;;;;;;;26.17;46.94;100574.25;5073138;28;20090;-68
2023/07/07 07:23:40;;;;;;;6.47;3.90;;;;;;;26.18;46.70;100581.41;5082167;28;20040;-63
2023/07/07 07:26:08;;;;;;;5.53;3.50;;;;;;;26.19;46.63;100583.13;5092500;28;20138;-70
2023/07/07 07:28:36;;;;;;;5.28;3.60;;;;;;;26.18;46.62;100581.41;5092439;28;20055;-67
2023/07/07 07:31:05;;;;;;;7.05;3.92;;;;;;;26.21;46.53;100585.66;5092614;28;20047;-68
2023/07/07 07:33:33;;;;;;;6.85;3.85;;;;;;;26.22;46.48;100581.88;5092070;28;20048;-67
2023/07/07 07:36:01;;;;;;;5.78;3.60;;;;;;;26.22;46.81;100592.81;5092337;28;20043;-68
2023/07/07 07:38:31;;;;;;;5.75;3.70;;;;;;;26.23;46.66;100591.78;5092308;28;20044;-67
2023/07/07 07:40:59;;;;;;;7.10;3.92;;;;;;;26.21;46.72;100594.72;5092704;28;20044;-67
2023/07/07 07:43:28;;;;;;;5.88;3.55;;;;;;;26.23;46.63;100600.84;5092679;28;20044;-67
2023/07/07 07:45:56;;;;;;;6.18;3.97;;;;;;;26.23;46.30;100595.38;5092508;28;20527;-67
2023/07/07 07:48:24;;;;;;;5.57;3.30;;;;;;;26.23;46.51;100595.38;5092494;28;20051;-68
2023/07/07 07:50:52;;;;;;;6.50;3.95;;;;;;;26.23;45.91;100592.63;5092824;28;20051;-68
2023/07/07 07:53:22;;;;;;;7.22;3.80;;;;;;;26.25;46.09;100601.53;5092475;28;20048;-67
2023/07/07 07:55:52;;;;;;;6.05;3.75;;;;;;;26.25;45.86;100597.94;5092797;28;20068;-68
2023/07/07 07:58:20;;;;;;;9.07;4.20;;;;;;;26.22;46.09;100595.56;5092539;28;20134;-68
2023/07/07 08:00:48;;;;;;;7.93;3.83;;;;;;;26.25;46.34;100593.31;5092714;28;20142;-67
2023/07/07 08:03:16;;;;;;;5.82;3.92;;;;;;;26.27;46.05;100605.97;5092418;28;20405;-67
2023/07/07 08:05:44;;;;;;;6.68;3.58;;;;;;;26.27;46.36;100601.34;5092456;28;20370;-67
2023/07/07 08:08:13;;;;;;;7.55;4.00;;;;;;;26.29;45.91;100601.16;5095519;28;20055;-67
2023/07/07 08:10:44;;;;;;;5.65;3.70;;;;;;;26.28;46.18;100599.44;5100838;28;20040;-67
2023/07/07 08:13:26;;;;;;;6.97;3.95;;;;;;;26.29;45.97;100601.16;5100841;28;20068;-67
2023/07/07 08:16:07;;;;;;;6.60;4.07;;;;;;;26.28;46.41;100605.75;5100844;28;20058;-68
2023/07/07 08:18:36;;;;;;;7.60;3.70;;;;;;;26.29;46.25;100610.19;5100454;28;20048;-67
2023/07/07 08:21:04;;;;;;;8.18;4.07;;;;;;;26.30;45.94;100605.56;5100722;28;20078;-66
2023/07/07 08:23:33;;;;;;;6.45;3.83;;;;;;;26.33;46.14;100610.66;5100576;28;20054;-65
2023/07/07 08:26:01;;;;;;;6.50;3.65;;;;;;;26.32;45.70;100614.44;5095231;28;20052;-66
2023/07/07 08:28:33;;;;;;;6.15;3.78;;;;;;;26.32;45.85;100611.69;5098244;28;20315;-66
2023/07/07 08:31:02;;;;;;;6.00;3.92;;;;;;;26.33;45.46;100611.50;5091999;28;20040;-66
2023/07/07 08:33:30;;;;;;;6.32;3.83;;;;;;;26.33;45.48;100613.41;5091797;28;20451;-66
2023/07/07 08:35:59;;;;;;;6.32;3.75;;;;;;;26.34;45.55;100618.66;5091646;28;20040;-66
2023/07/07 08:38:27;;;;;;;7.45;4.40;;;;;;;26.31;45.20;100607.28;5091816;28;20109;-65
2023/07/07 08:40:57;;;;;;;6.38;3.63;;;;;;;26.36;45.45;100613.03;5091549;28;20071;-64
2023/07/07 08:43:28;;;;;;;6.55;4.00;;;;;;;26.37;45.26;100612.00;5091837;28;20129;-63
2023/07/07 08:46:09;;;;;;;7.03;3.78;;;;;;;26.36;44.81;100613.03;5091847;28;20484;-63
2023/07/07 08:48:44;;;;;;;7.25;4.10;;;;;;;26.38;44.85;100619.19;5091595;28;20055;-64
2023/07/07 08:51:18;;;;;;;6.20;3.67;;;;;;;26.39;44.91;100615.44;5092574;28;20047;-65
2023/07/07 08:53:58;;;;;;;6.05;4.30;;;;;;;26.38;45.11;100614.59;5099448;28;20070;-65
2023/07/07 08:56:48;;;;;;;7.18;3.85;;;;;;;26.39;44.44;100619.00;5091220;28;20126;-67
2023/07/07 08:59:26;;;;;;;5.90;3.80;;;;;;;26.39;44.30;100619.00;5091389;28;20051;-64
2023/07/07 09:02:03;;;;;;;6.93;3.92;;;;;;;26.41;44.19;100619.66;5091436;28;20078;-65
2023/07/07 09:04:43;;;;;;;7.45;4.18;;;;;;;26.42;44.09;100629.56;5095722;28;20047;-63
2023/07/07 09:07:28;;;;;;;7.20;4.18;;;;;;;26.43;44.05;100622.22;5098099;28;20048;-63
2023/07/07 09:10:11;;;;;;;7.50;4.10;;;;;;;26.42;43.78;100625.97;5098609;28;20067;-63
2023/07/07 09:12:45;;;;;;;6.00;3.97;;;;;;;26.43;43.32;100622.22;5098975;28;20040;-63
2023/07/07 09:15:19;;;;;;;6.82;4.20;;;;;;;26.43;43.05;100633.16;5102251;28;20467;-63
2023/07/07 09:17:56;;;;;;;6.40;3.70;;;;;;;26.44;43.20;100632.13;5099042;28;20089;-64
2023/07/07 09:20:27;;;;;;;6.30;3.92;;;;;;;26.45;43.01;100639.31;5098497;28;20036;-64
2023/07/07 09:23:07;;;;;;;6.70;4.22;;;;;;;26.46;42.67;100632.81;5094450;28;20066;-66
2023/07/07 09:25:40;;;;;;;6.18;3.95;;;;;;;26.44;42.91;100621.16;5095547;28;20048;-65
2023/07/07 09:28:18;;;;;;;7.07;4.28;;;;;;;26.45;42.84;100620.16;5090829;28;20073;-65
2023/07/07 09:30:53;;;;;;;5.72;3.65;;;;;;;26.47;42.92;100629.03;5093226;28;20044;-63
2023/07/07 09:33:24;;;;;;;7.70;4.10;;;;;;;26.49;42.68;100629.69;5100382;28;20080;-62
2023/07/07 09:36:02;;;;;;;6.32;3.78;;;;;;;26.49;43.05;100636.00;5102374;28;20131;-62
2023/07/07 09:38:48;;;;;;;5.93;3.78;;;;;;;26.50;42.87;100634.97;5103948;28;20044;-61
2023/07/07 09:41:25;;;;;;;7.18;4.25;;;;;;;26.51;42.65;100631.19;5109665;28;20146;-63
2023/07/07 09:44:18;;;;;;;7.05;4.18;;;;;;;26.52;42.15;100637.50;5103715;28;20072;-65
2023/07/07 09:47:00;;;;;;;8.13;4.30;;;;;;;26.53;42.53;100636.47;5101854;28;20047;-66
2023/07/07 09:49:40;;;;;;;6.63;4.10;;;;;;;26.55;42.59;100639.88;5104874;28;20044;-62
2023/07/07 09:52:27;;;;;;;6.68;4.03;;;;;;;26.55;42.06;100634.41;5115333;28;20071;-63
2023/07/07 09:54:58;;;;;;;6.30;4.05;;;;;;;26.56;42.09;100630.66;5097949;28;20047;-67
2023/07/07 09:57:31;;;;;;;8.30;4.03;;;;;;;26.58;41.65;100642.25;5105802;28;20054;-65
2023/07/07 10:00:00;;;;;;;;;;;;;;;26.59;41.81;100638.47;5100161;28;20123;-65
2023/07/07 10:02:29;;;;;;;6.22;4.22;;;;;;;26.59;41.51;100638.47;5103338;28;19949;-66
2023/07/07 10:05:03;;;;;;;7.63;4.18;;;;;;;26.61;41.33;100632.81;5104740;28;20055;-65
2023/07/07 10:07:36;;;;;;;8.70;4.25;;;;;;;26.61;41.18;100633.66;5102559;28;20149;-65
2023/07/07 10:10:05;;;;;;;5.97;3.78;;;;;;;26.62;41.04;100635.34;5103799;28;20063;-65
2023/07/07 10:12:36;;;;;;;5.78;3.90;;;;;;;26.65;41.59;100639.63;5097469;28;20130;-65
2023/07/07 10:15:29;;;;;;;6.70;3.70;;;;;;;26.65;41.32;100637.72;5104671;28;20105;-66
2023/07/07 10:18:05;;;;;;;7.82;4.22;;;;;;;26.66;41.21;100628.47;5115355;28;20048;-66
2023/07/07 10:20:36;;;;;;;6.85;3.78;;;;;;;26.68;41.07;100634.59;5114949;28;20506;-66
2023/07/07 10:23:04;;;;;;;6.72;3.63;;;;;;;26.68;41.03;100637.34;5110286;28;20076;-65
2023/07/07 10:25:33;;;;;;;7.07;4.30;;;;;;;26.70;41.52;100628.94;5094504;28;20503;-66
2023/07/07 10:28:02;;;;;;;7.30;3.92;;;;;;;26.71;40.90;100630.63;5098025;28;20036;-65
2023/07/07 10:30:31;;;;;;;6.50;4.30;;;;;;;26.72;40.69;100624.97;5111821;28;20139;-65
2023/07/07 10:32:59;;;;;;;6.47;4.05;;;;;;;26.74;40.36;100641.22;5114414;28;20461;-65
2023/07/07 10:35:32;;;;;;;6.57;4.07;;;;;;;26.76;40.93;100640.00;5114462;28;20051;-66
2023/07/07 10:38:04;;;;;;;7.50;4.38;;;;;;;26.76;40.81;100634.53;5114740;28;20078;-66
2023/07/07 10:40:32;;;;;;;5.97;4.07;;;;;;;26.78;40.66;100631.59;5114745;28;20050;-66
2023/07/07 10:43:01;;;;;;;9.35;4.25;;;;;;;26.78;40.98;100632.44;5113711;28;20048;-66
2023/07/07 10:45:29;;;;;;;5.70;3.70;;;;;;;26.82;40.52;100630.16;5114307;28;20120;-66
2023/07/07 10:47:58;;;;;;;6.80;3.70;;;;;;;26.85;40.36;100626.22;5103377;28;20054;-66
2023/07/07 10:50:29;;;;;;;7.85;3.92;;;;;;;26.87;40.35;100630.47;5093976;28;20056;-65
2023/07/07 10:53:23;;;;;;;6.57;4.07;;;;;;;26.89;40.15;100622.06;5093977;28;20088;-66
2023/07/07 10:56:12;;;;;;;7.35;4.28;;;;;;;26.87;40.20;100618.66;5093949;28;20127;-66
2023/07/07 10:58:56;;;;;;;7.45;4.22;;;;;;;26.92;40.13;100617.03;5094191;28;20504;-66
2023/07/07 11:01:34;;;;;;;8.27;4.07;;;;;;;26.95;40.09;100615.84;5100719;28;20048;-66
2023/07/07 11:04:37;;;;;;;7.15;4.15;;;;;;;26.96;40.47;100618.38;5096538;28;20040;-65
2023/07/07 11:07:22;;;;;;;6.25;4.18;;;;;;;26.99;40.07;100617.13;5094263;28;20415;-65
2023/07/07 11:10:08;;;;;;;7.05;3.88;;;;;;;27.02;39.89;100622.22;5097508;28;20408;-65
2023/07/07 11:12:45;;;;;;;6.82;3.95;;;;;;;27.03;39.70;100618.50;5100946;28;20086;-66
2023/07/07 11:15:22;;;;;;;8.25;4.00;;;;;;;27.05;39.70;100621.91;5104138;28;20139;-67
2023/07/07 11:18:03;;;;;;;5.75;3.78;;;;;;;27.07;39.83;100614.34;5073261;28;20049;-66
2023/07/07 11:20:58;;;;;;;6.75;3.95;;;;;;;27.10;39.72;100616.69;5077130;28;20111;-65
2023/07/07 11:23:56;;;;;;;6.65;3.70;;;;;;;27.11;39.93;100610.16;5110594;28;20043;-66
2023/07/07 11:26:37;;;;;;;7.15;3.70;;;;;;;27.12;39.88;100617.38;5099277;28;20048;-67
2023/07/07 11:29:16;;;;;;;6.68;3.78;;;;;;;27.13;39.68;100612.75;5088094;28;20051;-67
2023/07/07 11:32:05;;;;;;;6.95;4.03;;;;;;;27.12;39.65;100611.88;5073017;28;20051;-66
2023/07/07 11:34:47;;;;;;;6.60;4.00;;;;;;;27.16;39.82;100615.94;5073052;28;20492;-61
2023/07/07 11:37:29;;;;;;;7.30;4.28;;;;;;;27.17;39.50;100609.41;5072907;28;20083;-62
2023/07/07 11:40:13;;;;;;;7.03;4.13;;;;;;;27.19;39.61;100617.44;5072493;28;20060;-64
2023/07/07 11:42:56;;;;;;;6.85;4.20;;;;;;;27.21;39.62;100615.34;5072411;28;20062;-64
2023/07/07 11:45:34;;;;;;;5.78;3.72;;;;;;;27.23;39.98;100608.66;5072497;28;20098;-62
2023/07/07 11:48:17;;;;;;;5.60;3.88;;;;;;;27.26;39.86;100619.22;5072482;28;20049;-62
2023/07/07 11:51:13;;;;;;;6.28;3.85;;;;;;;27.27;39.58;100609.97;5072256;28;20838;-63
2023/07/07 11:53:57;;;;;;;6.50;4.03;;;;;;;27.30;39.78;100614.19;5068318;28;20091;-64